createdAt,value
2022-11-16T00:02:14.700Z,99812.38
2022-11-16T00:05:16.217Z,99808.09
2022-11-16T00:08:17.615Z,99812.38
2022-11-16T00:11:19.057Z,99812.38
2022-11-16T00:14:22.090Z,99816.59
2022-11-16T00:17:23.542Z,99802.53
2022-11-16T00:20:24.927Z,99798.16
2022-11-16T00:23:26.348Z,99801.63
2022-11-16T00:26:28.148Z,99802.50
2022-11-16T00:29:29.747Z,99802.50
2022-11-16T00:32:31.172Z,99804.34
2022-11-16T00:35:37.333Z,99803.41
2022-11-16T00:38:39.866Z,99805.13
2022-11-16T00:41:42.695Z,99805.25
2022-11-16T00:44:44.121Z,99812.25
2022-11-16T00:47:45.581Z,99811.25
2022-11-16T00:50:47.327Z,99810.41
2022-11-16T00:53:49.510Z,99805.19
2022-11-16T00:56:50.944Z,99802.53
2022-11-16T00:59:52.452Z,99799.06
2022-11-16T01:02:54.776Z,99799.84
2022-11-16T01:06:01.518Z,99802.50
2022-11-16T01:09:03.163Z,99801.53
2022-11-16T01:12:04.996Z,99793.63
2022-11-16T01:15:08.274Z,99797.94
2022-11-16T01:18:09.703Z,99806.78
2022-11-16T01:21:11.170Z,99804.06
2022-11-16T01:24:13.203Z,99800.63
2022-11-16T01:27:14.827Z,99803.25
2022-11-16T01:30:19.161Z,99797.94
2022-11-16T01:33:31.737Z,99804.97
2022-11-16T01:36:33.332Z,99805.84
2022-11-16T01:39:36.831Z,99797.84
2022-11-16T01:42:38.604Z,99801.50
2022-11-16T01:45:41.068Z,99799.69
2022-11-16T01:48:46.220Z,99801.41
2022-11-16T01:51:53.406Z,99793.50
2022-11-16T01:54:55.628Z,99789.94
2022-11-16T01:58:00.427Z,99793.50
2022-11-16T02:01:03.875Z,99793.59
2022-11-16T02:04:14.543Z,99792.72
2022-11-16T02:07:41.473Z,99793.72
2022-11-16T02:11:00.506Z,99787.59
2022-11-16T02:14:20.818Z,99780.72
2022-11-16T02:17:57.837Z,99778.22
2022-11-16T02:21:23.569Z,99787.00
2022-11-16T02:24:44.450Z,99792.28
2022-11-16T02:28:15.476Z,99796.03
2022-11-16T02:31:23.445Z,99796.97
2022-11-16T02:34:30.799Z,99799.59
2022-11-16T02:37:37.852Z,99798.81
2022-11-16T02:40:45.457Z,99793.53
2022-11-16T02:44:01.408Z,99787.38
2022-11-16T02:47:09.210Z,99781.50
2022-11-16T02:50:16.185Z,99785.22
2022-11-16T02:53:17.715Z,99784.44
2022-11-16T02:56:19.917Z,99785.22
2022-11-16T02:59:25.880Z,99786.06
2022-11-16T03:02:55.085Z,99783.63
2022-11-16T03:06:16.322Z,99793.38
2022-11-16T03:09:24.406Z,99791.00
2022-11-16T03:12:31.706Z,99802.59
2022-11-16T03:15:37.660Z,99798.00
2022-11-16T03:18:41.050Z,99798.91
2022-11-16T03:21:58.799Z,99799.97
2022-11-16T03:25:00.557Z,99789.41
2022-11-16T03:28:33.680Z,99801.78
2022-11-16T03:31:47.132Z,99793.09
2022-11-16T03:34:56.628Z,99794.09
2022-11-16T03:38:00.371Z,99791.53
2022-11-16T03:41:05.606Z,99788.09
2022-11-16T03:44:11.115Z,99797.03
2022-11-16T03:47:14.005Z,99796.31
2022-11-16T03:50:15.708Z,99793.59
2022-11-16T03:53:17.992Z,99799.03
2022-11-16T03:56:19.958Z,99812.31
2022-11-16T03:59:22.060Z,99811.38
2022-11-16T04:02:23.563Z,99816.69
2022-11-16T04:05:28.198Z,99816.78
2022-11-16T04:08:30.043Z,99813.47
2022-11-16T04:11:32.075Z,99811.88
2022-11-16T04:14:33.942Z,99817.38
2022-11-16T04:17:35.682Z,99829.75
2022-11-16T04:20:37.280Z,99828.97
2022-11-16T04:23:39.008Z,99825.66
2022-11-16T04:26:47.618Z,99830.31
2022-11-16T04:29:49.695Z,99839.19
2022-11-16T04:32:51.495Z,99840.13
2022-11-16T04:35:53.032Z,99834.25
2022-11-16T04:38:54.459Z,99829.06
2022-11-16T04:41:56.095Z,99838.16
2022-11-16T04:44:57.654Z,99843.66
2022-11-16T04:48:03.014Z,99843.38
2022-11-16T04:51:07.719Z,99833.03
2022-11-16T04:54:10.207Z,99831.34
2022-11-16T04:57:12.128Z,99828.00
2022-11-16T05:00:14.349Z,99834.34
2022-11-16T05:03:15.904Z,99827.63
2022-11-16T05:06:17.637Z,99833.00
2022-11-16T05:09:19.852Z,99829.53
2022-11-16T05:12:27.673Z,99821.47
2022-11-16T05:15:32.995Z,99831.19
2022-11-16T05:18:35.518Z,99834.16
2022-11-16T05:21:38.084Z,99840.97
2022-11-16T05:24:40.509Z,99842.69
2022-11-16T05:27:42.065Z,99835.97
2022-11-16T05:30:45.746Z,99841.34
2022-11-16T05:33:49.549Z,99849.38
2022-11-16T05:36:52.996Z,99850.16
2022-11-16T05:39:54.692Z,99855.41
2022-11-16T05:43:00.436Z,99852.09
2022-11-16T05:46:04.990Z,99858.44
2022-11-16T05:49:07.136Z,99849.06
2022-11-16T05:52:10.239Z,99855.41
2022-11-16T05:55:13.009Z,99847.78
2022-11-16T05:58:17.580Z,99842.75
2022-11-16T06:01:19.462Z,99855.19
2022-11-16T06:04:27.121Z,99852.75
2022-11-16T06:07:29.528Z,99853.78
2022-11-16T06:10:31.415Z,99863.41
2022-11-16T06:13:33.440Z,99856.09
2022-11-16T06:16:35.882Z,99854.22
2022-11-16T06:19:41.390Z,99858.03
2022-11-16T06:22:43.011Z,99866.50
2022-11-16T06:25:44.593Z,99871.94
2022-11-16T06:28:46.346Z,99872.06
2022-11-16T06:31:48.766Z,99875.72
2022-11-16T06:34:50.701Z,99878.66
2022-11-16T06:37:52.240Z,99880.75
2022-11-16T06:40:56.477Z,99878.19
2022-11-16T06:44:00.617Z,99879.09
2022-11-16T06:47:07.572Z,99875.97
2022-11-16T06:50:10.207Z,99882.75
2022-11-16T06:53:12.792Z,99883.94
2022-11-16T06:56:15.409Z,99891.91
2022-11-16T06:59:31.932Z,99887.47
2022-11-16T07:02:37.182Z,99891.00
2022-11-16T07:05:40.627Z,99895.59
2022-11-16T07:08:45.753Z,99898.00
2022-11-16T07:11:50.762Z,99901.44
2022-11-16T07:14:53.918Z,99897.28
2022-11-16T07:17:56.058Z,99898.53
2022-11-16T07:20:57.530Z,99904.81
2022-11-16T07:23:58.964Z,99906.53
2022-11-16T07:27:01.147Z,99907.59
2022-11-16T07:30:08.260Z,99907.25
2022-11-16T07:33:31.103Z,99907.44
2022-11-16T07:36:51.533Z,99913.56
2022-11-16T07:39:53.000Z,99912.13
2022-11-16T07:42:57.583Z,99921.66
2022-11-16T07:49:46.752Z,99932.63
2022-11-16T07:52:51.278Z,99935.94
2022-11-16T07:55:56.864Z,99945.44
2022-11-16T07:59:00.421Z,99943.50
2022-11-16T08:02:04.004Z,99940.84
2022-11-16T08:05:06.657Z,99949.53
2022-11-16T08:08:09.078Z,99953.69
2022-11-16T08:11:12.823Z,99942.22
2022-11-16T08:14:14.380Z,99944.72
2022-11-16T08:17:16.617Z,99950.81
2022-11-16T08:20:18.856Z,99949.81
2022-11-16T08:23:21.569Z,99961.84
2022-11-16T08:26:23.375Z,99946.91
2022-11-16T08:29:34.420Z,99942.41
2022-11-16T08:32:38.409Z,99948.34
2022-11-16T08:35:40.797Z,99948.28
2022-11-16T08:38:42.311Z,99949.91
2022-11-16T08:41:43.840Z,99952.47
2022-11-16T08:44:45.551Z,99957.56
2022-11-16T08:47:49.432Z,99952.97
2022-11-16T08:51:16.094Z,99959.03
2022-11-16T08:54:14.307Z,99961.47
2022-11-16T08:57:17.211Z,99955.31
2022-11-16T09:00:22.337Z,99950.81
2022-11-16T09:03:23.776Z,99963.72
2022-11-16T09:06:26.638Z,99965.38
2022-11-16T09:09:28.058Z,99962.66
2022-11-16T09:12:29.495Z,99973.88
2022-11-16T09:15:30.889Z,99965.28
2022-11-16T09:18:33.770Z,99972.06
2022-11-16T09:21:35.361Z,99969.69
2022-11-16T09:24:36.845Z,99974.06
2022-11-16T09:27:38.249Z,99959.25
2022-11-16T09:30:39.733Z,99970.63
2022-11-16T09:33:41.134Z,99961.81
2022-11-16T09:36:42.558Z,99967.94
2022-11-16T09:39:44.023Z,99966.88
2022-11-16T09:43:04.099Z,99973.78
2022-11-16T09:46:31.467Z,99970.84
2022-11-16T09:49:40.936Z,99981.97
2022-11-16T09:52:46.252Z,99977.28
2022-11-16T09:55:52.553Z,99976.31
2022-11-16T09:59:13.491Z,99975.38
2022-11-16T10:02:43.095Z,99981.47
2022-11-16T10:06:21.884Z,99978.69
2022-11-16T10:09:23.407Z,99975.13
2022-11-16T10:12:34.257Z,99977.59
2022-11-16T10:15:57.240Z,99961.66
2022-11-16T10:19:04.207Z,99973.72
2022-11-16T10:22:25.868Z,99975.34
2022-11-16T10:25:40.711Z,99962.66
2022-11-16T10:28:50.913Z,99965.22
2022-11-16T10:32:25.784Z,99968.47
2022-11-16T10:35:35.789Z,99965.66
2022-11-16T10:38:37.596Z,99968.13
2022-11-16T10:41:48.264Z,99965.94
2022-11-16T10:44:56.790Z,99966.69
2022-11-16T10:48:07.840Z,99966.22
2022-11-16T10:51:10.131Z,99962.00
2022-11-16T10:54:16.322Z,99969.41
2022-11-16T10:57:18.325Z,99966.78
2022-11-16T11:00:33.815Z,99966.91
2022-11-16T11:03:35.813Z,99960.63
2022-11-16T11:06:38.730Z,99964.06
2022-11-16T11:09:40.213Z,99952.44
2022-11-16T11:13:02.079Z,99953.91
2022-11-16T11:16:16.188Z,99958.13
2022-11-16T11:19:28.445Z,99956.72
2022-11-16T11:22:32.284Z,99955.97
2022-11-16T11:25:33.656Z,99955.22
2022-11-16T11:28:37.910Z,99953.41
2022-11-16T11:31:42.531Z,99953.84
2022-11-16T11:34:47.688Z,99962.50
2022-11-16T11:37:52.599Z,99971.19
2022-11-16T11:41:02.194Z,99974.34
2022-11-16T11:44:06.227Z,99971.94
2022-11-16T11:47:56.837Z,99970.16
2022-11-16T11:50:50.977Z,99978.06
2022-11-16T11:54:00.953Z,99956.97
2022-11-16T11:57:03.865Z,99970.47
2022-11-16T12:00:06.477Z,99949.44
2022-11-16T12:03:47.102Z,99951.38
2022-11-16T12:07:12.748Z,99943.09
2022-11-16T12:10:36.039Z,99936.88
2022-11-16T12:14:14.910Z,99932.41
2022-11-16T12:17:53.754Z,99925.44
2022-11-16T12:21:12.720Z,99927.00
2022-11-16T12:24:23.384Z,99921.16
2022-11-16T12:27:32.806Z,99913.91
2022-11-16T12:30:55.237Z,99921.16
2022-11-16T12:34:12.775Z,99909.00
2022-11-16T12:37:40.494Z,99920.69
2022-11-16T12:41:06.907Z,99910.91
2022-11-16T12:44:15.868Z,99916.19
2022-11-16T12:47:27.318Z,99913.28
2022-11-16T12:50:50.010Z,99921.13
2022-11-16T12:54:27.996Z,99907.88
2022-11-16T12:57:55.265Z,99909.44
2022-11-16T13:01:08.907Z,99897.34
2022-11-16T13:04:20.449Z,99906.56
2022-11-16T13:07:27.526Z,99902.41
2022-11-16T13:10:35.000Z,99899.66
2022-11-16T13:13:37.482Z,99905.19
2022-11-16T13:16:39.472Z,99902.75
2022-11-16T13:19:45.692Z,99894.31
2022-11-16T13:23:00.244Z,99900.00
2022-11-16T13:26:06.094Z,99900.38
2022-11-16T13:29:18.268Z,99895.88
2022-11-16T13:32:31.014Z,99889.78
2022-11-16T13:35:37.257Z,99883.72
2022-11-16T13:38:53.986Z,99882.63
2022-11-16T13:42:12.741Z,99886.09
2022-11-16T13:45:21.632Z,99872.34
2022-11-16T13:48:34.992Z,99870.63
2022-11-16T13:51:36.826Z,99881.34
2022-11-16T13:54:46.841Z,99881.16
2022-11-16T13:57:53.624Z,99878.00
2022-11-16T14:01:02.410Z,99873.72
2022-11-16T14:04:40.964Z,99874.84
2022-11-16T14:07:44.671Z,99858.09
2022-11-16T14:10:48.966Z,99859.63
2022-11-16T14:13:50.591Z,99855.09
2022-11-16T14:16:52.110Z,99849.72
2022-11-16T14:19:54.060Z,99846.38
2022-11-16T14:23:38.767Z,99846.28
2022-11-16T14:27:04.072Z,99847.69
2022-11-16T14:30:08.633Z,99834.91
2022-11-16T14:33:22.900Z,99833.81
2022-11-16T14:36:39.993Z,99833.50
2022-11-16T14:39:43.637Z,99837.28
2022-11-16T14:43:17.250Z,99827.31
2022-11-16T14:46:27.829Z,99823.44
2022-11-16T14:49:34.560Z,99813.69
2022-11-16T14:52:48.830Z,99815.09
2022-11-16T14:55:50.304Z,99795.69
2022-11-16T14:58:57.716Z,99804.84
2022-11-16T15:02:04.926Z,99798.50
2022-11-16T15:05:06.991Z,99804.41
2022-11-16T15:08:19.318Z,99785.78
2022-11-16T15:11:33.703Z,99787.44
2022-11-16T15:14:41.523Z,99785.31
2022-11-16T15:17:45.720Z,99789.06
2022-11-16T15:20:50.891Z,99773.63
2022-11-16T15:24:15.444Z,99772.28
2022-11-16T15:27:34.011Z,99770.31
2022-11-16T15:30:37.534Z,99761.28
2022-11-16T15:33:43.063Z,99756.88
2022-11-16T15:36:45.406Z,99747.63
2022-11-16T15:39:46.892Z,99734.19
2022-11-16T15:42:49.887Z,99739.31
2022-11-16T15:45:52.635Z,99735.53
2022-11-16T15:48:55.043Z,99739.63
2022-11-16T15:51:58.440Z,99730.38
2022-11-16T15:54:59.890Z,99727.84
2022-11-16T15:58:19.941Z,99727.97
2022-11-16T16:01:22.744Z,99725.06
2022-11-16T16:04:25.798Z,99719.81
2022-11-16T16:07:41.498Z,99712.53
2022-11-16T16:10:42.896Z,99706.75
2022-11-16T16:13:56.548Z,99701.63
2022-11-16T16:17:00.135Z,99699.97
2022-11-16T16:20:04.786Z,99704.56
2022-11-16T16:23:13.418Z,99701.16
2022-11-16T16:26:16.303Z,99699.25
2022-11-16T16:29:17.720Z,99709.03
2022-11-16T16:32:26.437Z,99707.44
2022-11-16T16:35:28.047Z,99715.91
2022-11-16T16:38:29.631Z,99701.69
2022-11-16T16:41:31.024Z,99685.13
2022-11-16T16:44:32.442Z,99691.38
2022-11-16T16:47:33.902Z,99686.03
2022-11-16T16:50:35.937Z,99679.38
2022-11-16T16:53:37.477Z,99683.19
2022-11-16T16:56:39.521Z,99686.84
2022-11-16T16:59:41.485Z,99678.06
2022-11-16T17:02:43.087Z,99672.81
2022-11-16T17:05:44.501Z,99670.78
2022-11-16T17:08:45.926Z,99672.59
2022-11-16T17:11:47.572Z,99667.25
2022-11-16T17:14:48.975Z,99671.53
2022-11-16T17:17:50.410Z,99663.63
2022-11-16T17:20:51.846Z,99658.75
2022-11-16T17:23:53.934Z,99665.03
2022-11-16T17:26:55.345Z,99648.63
2022-11-16T17:29:56.784Z,99646.69
2022-11-16T17:32:58.475Z,99645.84
2022-11-16T17:35:59.888Z,99633.31
2022-11-16T17:39:01.384Z,99643.06
2022-11-16T17:42:02.796Z,99631.13
2022-11-16T17:45:04.575Z,99637.31
2022-11-16T17:48:06.176Z,99636.50
2022-11-16T17:51:07.861Z,99639.22
2022-11-16T17:54:09.257Z,99631.03
2022-11-16T17:57:10.684Z,99627.91
2022-11-16T18:00:12.703Z,99637.19
2022-11-16T18:03:14.146Z,99627.50
2022-11-16T18:06:21.434Z,99626.59
2022-11-16T18:09:22.882Z,99626.41
2022-11-16T18:12:25.415Z,99626.34
2022-11-16T18:15:28.956Z,99621.09
2022-11-16T18:18:31.573Z,99634.88
2022-11-16T18:21:39.092Z,99631.25
2022-11-16T18:24:40.480Z,99632.06
2022-11-16T18:27:41.975Z,99630.72
2022-11-16T18:30:43.391Z,99616.50
2022-11-16T18:33:45.577Z,99620.50
2022-11-16T18:36:46.984Z,99628.44
2022-11-16T18:39:48.467Z,99622.78
2022-11-16T18:42:49.918Z,99620.66
2022-11-16T18:45:51.402Z,99608.47
2022-11-16T18:48:53.314Z,99599.78
2022-11-16T18:51:54.759Z,99605.53
2022-11-16T18:54:56.159Z,99599.63
2022-11-16T18:57:57.568Z,99583.16
2022-11-16T19:01:04.024Z,99576.81
2022-11-16T19:04:05.525Z,99562.88
2022-11-16T19:07:07.056Z,99550.56
2022-11-16T19:10:09.179Z,99542.56
2022-11-16T19:13:10.643Z,99543.38
2022-11-16T19:16:13.636Z,99532.53
2022-11-16T19:19:15.071Z,99526.34
2022-11-16T19:22:16.490Z,99513.94
2022-11-16T19:25:17.976Z,99496.38
2022-11-16T19:28:19.387Z,99494.47
2022-11-16T19:31:26.419Z,99487.28
2022-11-16T19:34:33.005Z,99478.53
2022-11-16T19:37:34.873Z,99474.06
2022-11-16T19:40:36.440Z,99459.97
2022-11-16T19:43:38.465Z,99444.16
2022-11-16T19:46:40.020Z,99425.03
2022-11-16T19:49:41.452Z,99424.78
2022-11-16T19:52:42.853Z,99411.41
2022-11-16T19:55:52.789Z,99412.31
2022-11-16T19:58:54.311Z,99408.78
2022-11-16T20:01:55.768Z,99408.56
2022-11-16T20:04:57.252Z,99411.00
2022-11-16T20:08:02.068Z,99399.66
2022-11-16T20:11:11.230Z,99379.59
2022-11-16T20:14:12.729Z,99386.56
2022-11-16T20:17:14.198Z,99386.63
2022-11-16T20:20:15.612Z,99377.88
2022-11-16T20:23:17.048Z,99368.56
2022-11-16T20:26:20.204Z,99375.41
2022-11-16T20:29:22.227Z,99367.56
2022-11-16T20:32:23.911Z,99359.50
2022-11-16T20:35:25.361Z,99348.00
2022-11-16T20:38:27.040Z,99351.47
2022-11-16T20:41:32.066Z,99342.59
2022-11-16T20:44:33.484Z,99333.00
2022-11-16T20:47:34.906Z,99331.91
2022-11-16T20:50:36.342Z,99323.09
2022-11-16T20:53:38.103Z,99306.41
2022-11-16T20:56:39.720Z,99309.19
2022-11-16T20:59:41.166Z,99310.63
2022-11-16T21:02:42.625Z,99287.75
2022-11-16T21:05:45.793Z,99294.00
2022-11-16T21:08:47.227Z,99287.09
2022-11-16T21:11:48.888Z,99276.56
2022-11-16T21:14:50.309Z,99265.84
2022-11-16T21:17:51.707Z,99263.19
2022-11-16T21:21:06.882Z,99256.84
2022-11-16T21:24:11.355Z,99247.13
2022-11-16T21:27:12.756Z,99243.56
2022-11-16T21:30:14.363Z,99238.97
2022-11-16T21:33:15.822Z,99236.34
2022-11-16T21:36:25.749Z,99226.63
2022-11-16T21:39:27.131Z,99212.81
2022-11-16T21:42:28.556Z,99210.88
2022-11-16T21:45:29.987Z,99200.19
2022-11-16T21:48:32.731Z,99194.28
2022-11-16T21:51:34.179Z,99196.81
2022-11-16T21:54:35.594Z,99179.88
2022-11-16T21:57:37.003Z,99174.91
2022-11-16T22:00:38.397Z,99156.56
2022-11-16T22:03:39.850Z,99151.41
2022-11-16T22:06:41.262Z,99138.16
2022-11-16T22:09:42.828Z,99134.25
2022-11-16T22:12:44.259Z,99124.56
2022-11-16T22:15:46.250Z,99113.25
2022-11-16T22:18:47.660Z,99101.00
2022-11-16T22:21:49.063Z,99090.66
2022-11-16T22:24:50.679Z,99081.84
2022-11-16T22:28:19.094Z,99071.28
2022-11-16T22:31:14.948Z,99052.25
2022-11-16T22:34:16.402Z,99051.47
2022-11-16T22:37:18.022Z,99035.69
2022-11-16T22:40:19.415Z,99029.66
2022-11-16T22:43:23.055Z,99025.19
2022-11-16T22:46:24.479Z,99018.38
2022-11-16T22:49:25.931Z,99017.47
2022-11-16T22:52:27.355Z,99009.50
2022-11-16T22:55:28.823Z,99005.84
2022-11-16T22:58:30.245Z,98984.06
2022-11-16T23:01:32.771Z,98965.59
2022-11-16T23:04:34.202Z,98966.44
2022-11-16T23:07:35.989Z,98952.47
2022-11-16T23:10:37.468Z,98948.19
2022-11-16T23:13:38.881Z,98923.69
2022-11-16T23:16:41.247Z,98913.41
2022-11-16T23:19:42.939Z,98896.72
2022-11-16T23:22:44.400Z,98889.63
2022-11-16T23:25:45.859Z,98871.97
2022-11-16T23:28:47.302Z,98863.00
2022-11-16T23:31:48.716Z,98839.50
2022-11-16T23:34:50.172Z,98825.28
2022-11-16T23:37:55.506Z,98819.25
2022-11-16T23:40:56.908Z,98807.91
2022-11-16T23:43:58.314Z,98780.75
2022-11-16T23:46:59.699Z,98770.34
2022-11-16T23:50:01.125Z,98772.72
2022-11-16T23:53:02.931Z,98748.16
2022-11-16T23:56:06.157Z,98735.00
2022-11-16T23:59:07.796Z,98727.81
